Terminal Aerodrome Forecast
Issued by NWS

Home | Current Version | Previous Version | Text Only | Print | Product List | Glossary On
Versions: 1 2 3 4 5 6 7 8 9 10 11 12 13
000
FTUS45 KSLC 210539
TAFENV
TAF
KENV 210539Z 2106/2206 01010G18KT P6SM SKC
     FM210800 VRB04KT P6SM SKC
     FM211600 14008KT P6SM SCT120
     FM212100 19012G20KT P6SM VCSH SCT070 BKN120
      AMD LTD TO CLD VIS AND WIND=

USA.gov is the U.S. government's official web portal to all federal, state and local government web resources and services.